createdAt,value
2022-10-28T00:01:14.165Z,23.97
2022-10-28T00:03:45.901Z,24.87
2022-10-28T00:06:16.173Z,24.77
2022-10-28T00:08:44.242Z,25.77
2022-10-28T00:11:14.145Z,24.93
2022-10-28T00:13:43.103Z,24.27
2022-10-28T00:16:13.854Z,23.90
2022-10-28T00:18:43.837Z,24.50
2022-10-28T00:21:14.508Z,22.83
2022-10-28T00:23:43.100Z,24.10
2022-10-28T00:26:13.060Z,24.40
2022-10-28T00:28:45.465Z,22.93
2022-10-28T00:31:15.334Z,23.07
2022-10-28T00:33:45.073Z,22.67
2022-10-28T00:36:15.904Z,21.60
2022-10-28T00:38:45.186Z,19.73
2022-10-28T00:41:15.670Z,23.63
2022-10-28T00:43:45.475Z,20.10
2022-10-28T00:46:20.872Z,20.53
2022-10-28T00:48:55.699Z,20.97
2022-10-28T00:51:25.683Z,20.33
2022-10-28T00:53:55.333Z,19.27
2022-10-28T00:58:57.924Z,18.63
2022-10-28T01:01:26.119Z,17.73
2022-10-28T01:03:56.997Z,17.60
2022-10-28T01:06:26.061Z,17.30
2022-10-28T01:08:57.540Z,17.33
2022-10-28T01:11:57.449Z,19.03
2022-10-28T01:14:39.456Z,17.10
2022-10-28T01:17:28.477Z,17.30
2022-10-28T01:20:40.881Z,16.93
2022-10-28T01:23:17.260Z,17.83
2022-10-28T01:26:19.977Z,17.97
2022-10-28T01:29:07.351Z,16.50
2022-10-28T01:31:42.561Z,16.03
2022-10-28T01:34:17.206Z,16.40
2022-10-28T01:37:00.273Z,16.83
2022-10-28T01:39:35.254Z,16.17
2022-10-28T01:42:13.882Z,15.87
2022-10-28T01:44:49.292Z,14.27
2022-10-28T01:47:23.857Z,15.73
2022-10-28T01:49:56.878Z,19.40
2022-10-28T01:52:27.877Z,38.57
2022-10-28T01:55:00.169Z,16.93
2022-10-28T01:57:31.662Z,18.00
2022-10-28T02:00:00.927Z,16.40
2022-10-28T02:02:33.727Z,15.33
2022-10-28T02:05:23.768Z,13.30
2022-10-28T02:07:55.041Z,16.17
2022-10-28T02:10:32.932Z,12.90
2022-10-28T02:13:05.697Z,12.43
2022-10-28T02:15:43.710Z,12.80
2022-10-28T02:18:26.129Z,12.43
2022-10-28T02:21:00.339Z,12.77
2022-10-28T02:23:41.112Z,18.93
2022-10-28T02:26:14.851Z,14.37
2022-10-28T02:28:49.824Z,12.70
2022-10-28T02:31:24.807Z,12.43
2022-10-28T02:33:58.364Z,12.37
2022-10-28T02:36:29.185Z,14.30
2022-10-28T02:38:59.643Z,14.17
2022-10-28T02:41:34.134Z,13.73
2022-10-28T02:44:07.303Z,13.27
2022-10-28T02:46:38.876Z,13.03
2022-10-28T02:49:11.548Z,12.77
2022-10-28T02:51:44.397Z,27.43
2022-10-28T02:54:15.478Z,13.97
2022-10-28T02:56:51.704Z,17.03
2022-10-28T02:59:19.783Z,15.10
2022-10-28T03:01:47.842Z,15.60
2022-10-28T03:04:17.296Z,14.00
2022-10-28T03:06:45.277Z,15.73
2022-10-28T03:09:13.308Z,16.77
2022-10-28T03:11:41.361Z,18.97
2022-10-28T03:14:11.894Z,19.80
2022-10-28T03:16:42.835Z,20.20
2022-10-28T03:19:10.871Z,20.03
2022-10-28T03:21:40.236Z,19.47
2022-10-28T03:24:08.620Z,19.27
2022-10-28T03:26:42.790Z,18.00
2022-10-28T03:29:10.778Z,19.30
2022-10-28T03:31:38.744Z,18.00
2022-10-28T03:34:07.323Z,17.80
2022-10-28T03:36:35.304Z,17.60
2022-10-28T03:39:05.209Z,18.43
2022-10-28T03:41:33.217Z,17.37
2022-10-28T03:44:01.358Z,17.03
2022-10-28T03:46:31.151Z,16.23
2022-10-28T03:49:01.606Z,16.83
2022-10-28T03:51:29.582Z,15.00
2022-10-28T03:53:57.645Z,15.07
2022-10-28T03:56:27.327Z,16.93
2022-10-28T03:58:55.351Z,15.77
2022-10-28T04:01:23.527Z,16.60
2022-10-28T04:03:51.804Z,15.23
2022-10-28T04:06:19.793Z,15.87
2022-10-28T04:08:47.764Z,14.90
2022-10-28T04:11:15.782Z,14.90
2022-10-28T04:13:45.098Z,14.93
2022-10-28T04:16:13.073Z,15.47
2022-10-28T04:18:41.091Z,15.07
2022-10-28T04:21:09.082Z,14.67
2022-10-28T04:23:37.103Z,15.13
2022-10-28T04:26:05.247Z,17.93
2022-10-28T04:28:33.356Z,14.77
2022-10-28T04:31:03.153Z,15.53
2022-10-28T04:33:31.171Z,14.10
2022-10-28T04:35:59.148Z,13.70
2022-10-28T04:38:27.132Z,14.47
2022-10-28T04:40:55.219Z,14.57
2022-10-28T04:43:23.223Z,14.67
2022-10-28T04:45:51.235Z,16.40
2022-10-28T04:48:21.638Z,14.93
2022-10-28T04:50:50.979Z,13.80
2022-10-28T04:53:18.999Z,13.70
2022-10-28T04:55:46.982Z,13.90
2022-10-28T04:58:15.012Z,13.63
2022-10-28T05:00:43.024Z,14.77
2022-10-28T05:03:11.033Z,13.87
2022-10-28T05:05:40.817Z,14.20
2022-10-28T05:08:10.007Z,13.20
2022-10-28T05:10:37.964Z,14.30
2022-10-28T05:13:06.022Z,13.90
2022-10-28T05:15:34.032Z,13.60
2022-10-28T05:18:03.336Z,14.17
2022-10-28T05:20:31.315Z,13.40
2022-10-28T05:23:00.701Z,13.90
2022-10-28T05:25:28.797Z,14.13
2022-10-28T05:27:59.832Z,12.10
2022-10-28T05:30:28.497Z,12.97
2022-10-28T05:33:01.483Z,12.67
2022-10-28T05:35:29.899Z,14.00
2022-10-28T05:37:58.397Z,13.10
2022-10-28T05:40:28.836Z,14.07
2022-10-28T05:42:56.925Z,14.13
2022-10-28T05:45:25.096Z,13.57
2022-10-28T05:47:53.560Z,12.13
2022-10-28T05:50:23.078Z,13.40
2022-10-28T05:52:52.206Z,13.07
2022-10-28T05:55:21.958Z,13.10
2022-10-28T05:57:52.892Z,12.93
2022-10-28T06:00:24.063Z,14.83
2022-10-28T06:02:52.734Z,15.70
2022-10-28T06:05:21.521Z,13.70
2022-10-28T06:07:49.545Z,13.30
2022-10-28T06:10:17.661Z,12.27
2022-10-28T06:12:44.116Z,12.60
2022-10-28T06:15:13.461Z,12.57
2022-10-28T06:17:41.448Z,13.87
2022-10-28T06:20:10.659Z,11.33
2022-10-28T06:22:38.855Z,11.60
2022-10-28T06:25:07.772Z,11.67
2022-10-28T06:27:38.051Z,10.90
2022-10-28T06:30:08.411Z,11.53
2022-10-28T06:32:37.819Z,11.83
2022-10-28T06:35:06.485Z,11.70
2022-10-28T06:37:34.458Z,12.47
2022-10-28T06:40:02.615Z,11.03
2022-10-28T06:42:30.609Z,14.13
2022-10-28T06:44:58.628Z,12.87
2022-10-28T06:47:28.172Z,11.93
2022-10-28T06:50:03.880Z,11.13
2022-10-28T06:52:31.941Z,10.97
2022-10-28T06:55:00.243Z,11.17
2022-10-28T06:57:29.368Z,11.90
2022-10-28T06:59:57.571Z,12.00
2022-10-28T07:02:25.705Z,13.00
2022-10-28T07:04:53.807Z,11.77
2022-10-28T07:07:25.420Z,12.07
2022-10-28T07:09:54.414Z,11.93
2022-10-28T07:12:22.411Z,11.33
2022-10-28T07:14:50.414Z,12.17
2022-10-28T07:17:18.404Z,10.93
2022-10-28T07:19:46.363Z,11.03
2022-10-28T07:22:14.362Z,11.03
2022-10-28T07:24:43.719Z,11.33
2022-10-28T07:27:11.788Z,11.13
2022-10-28T07:29:39.778Z,10.73
2022-10-28T07:32:07.768Z,10.53
2022-10-28T07:34:35.815Z,10.67
2022-10-28T07:37:04.467Z,10.93
2022-10-28T07:39:32.490Z,10.77
2022-10-28T07:42:02.145Z,11.80
2022-10-28T07:44:30.130Z,11.53
2022-10-28T07:46:58.434Z,10.47
2022-10-28T07:49:26.911Z,11.57
2022-10-28T07:51:54.953Z,11.57
2022-10-28T07:54:23.175Z,11.07
2022-10-28T07:56:51.570Z,10.50
2022-10-28T07:59:25.854Z,11.37
2022-10-28T08:01:55.477Z,11.93
2022-10-28T08:04:23.576Z,13.13
2022-10-28T08:06:51.640Z,10.67
2022-10-28T08:09:19.691Z,12.80
2022-10-28T08:11:47.719Z,13.43
2022-10-28T08:14:15.783Z,13.47
2022-10-28T08:16:46.410Z,13.03
2022-10-28T08:19:14.533Z,12.90
2022-10-28T08:21:42.524Z,11.77
2022-10-28T08:24:10.641Z,11.47
2022-10-28T08:26:44.928Z,13.43
2022-10-28T08:29:13.239Z,10.87
2022-10-28T08:31:41.348Z,12.67
2022-10-28T08:34:10.903Z,11.17
2022-10-28T08:36:38.994Z,11.20
2022-10-28T08:39:07.279Z,10.97
2022-10-28T08:41:40.775Z,9.60
2022-10-28T08:44:33.755Z,10.33
2022-10-28T08:47:14.496Z,10.00
2022-10-28T08:49:49.242Z,9.77
2022-10-28T08:52:26.478Z,10.80
2022-10-28T08:54:58.856Z,11.33
2022-10-28T08:57:35.915Z,10.70
2022-10-28T09:00:07.937Z,10.80
2022-10-28T09:02:54.578Z,10.07
2022-10-28T09:05:26.118Z,11.07
2022-10-28T09:07:55.880Z,10.53
2022-10-28T09:10:46.893Z,11.80
2022-10-28T09:13:20.335Z,11.83
2022-10-28T09:15:56.190Z,11.07
2022-10-28T09:18:33.096Z,11.67
2022-10-28T09:21:07.136Z,12.50
2022-10-28T09:23:38.264Z,12.00
2022-10-28T09:26:17.562Z,14.57
2022-10-28T09:28:57.640Z,10.97
2022-10-28T09:31:35.910Z,13.40
2022-10-28T09:34:15.024Z,10.07
2022-10-28T09:36:50.275Z,11.77
2022-10-28T09:39:25.323Z,10.60
2022-10-28T09:41:58.259Z,9.80
2022-10-28T09:44:34.960Z,10.97
2022-10-28T09:47:13.686Z,9.10
2022-10-28T09:49:42.719Z,8.03
2022-10-28T09:52:18.809Z,9.38
2022-10-28T09:54:54.052Z,8.32
2022-10-28T09:57:25.893Z,8.15
2022-10-28T09:59:54.953Z,8.60
2022-10-28T10:02:28.980Z,10.13
2022-10-28T10:04:58.508Z,8.45
2022-10-28T10:07:33.531Z,8.40
2022-10-28T10:10:06.042Z,10.17
2022-10-28T10:12:35.005Z,6.80
2022-10-28T10:15:06.669Z,9.60
2022-10-28T10:17:40.384Z,11.60
2022-10-28T10:20:10.326Z,9.47
2022-10-28T10:22:41.607Z,11.27
2022-10-28T10:25:26.227Z,9.50
2022-10-28T10:27:57.649Z,11.17
2022-10-28T10:30:29.435Z,12.77
2022-10-28T10:32:58.616Z,8.70
2022-10-28T10:35:29.176Z,9.60
2022-10-28T10:38:00.495Z,6.73
2022-10-28T10:40:31.332Z,7.47
2022-10-28T10:43:24.680Z,9.27
2022-10-28T10:46:02.687Z,9.63
2022-10-28T10:48:32.328Z,9.27
2022-10-28T10:51:05.763Z,8.50
2022-10-28T10:53:38.103Z,8.20
2022-10-28T10:56:09.378Z,8.83
2022-10-28T10:58:41.583Z,11.93
2022-10-28T11:01:18.202Z,7.27
2022-10-28T11:03:51.082Z,8.33
2022-10-28T11:06:24.993Z,7.97
2022-10-28T11:08:59.905Z,8.57
2022-10-28T11:11:35.637Z,8.77
2022-10-28T11:14:07.104Z,8.50
2022-10-28T11:16:46.991Z,6.33
2022-10-28T11:19:21.474Z,8.27
2022-10-28T11:22:13.980Z,6.17
2022-10-28T11:24:59.583Z,7.03
2022-10-28T11:27:39.885Z,5.23
2022-10-28T11:30:14.100Z,7.70
2022-10-28T11:33:02.103Z,10.67
2022-10-28T11:35:54.435Z,10.27
2022-10-28T11:39:00.572Z,8.93
2022-10-28T11:41:41.494Z,6.13
2022-10-28T11:44:21.758Z,5.43
2022-10-28T11:47:04.009Z,6.23
2022-10-28T11:50:29.023Z,5.43
2022-10-28T11:53:25.802Z,4.40
2022-10-28T11:56:01.768Z,4.37
2022-10-28T11:58:39.243Z,4.93
2022-10-28T12:01:20.536Z,5.67
2022-10-28T12:04:07.664Z,5.23
2022-10-28T12:06:59.230Z,6.90
2022-10-28T12:09:38.580Z,2.77
2022-10-28T12:12:17.598Z,4.80
2022-10-28T12:14:56.754Z,2.63
2022-10-28T12:17:30.713Z,2.73
2022-10-28T12:20:02.207Z,3.33
2022-10-28T12:22:34.997Z,3.30
2022-10-28T12:25:09.620Z,3.77
2022-10-28T12:27:42.006Z,5.00
2022-10-28T12:30:22.283Z,3.33
2022-10-28T12:32:54.196Z,4.33
2022-10-28T12:35:26.015Z,5.50
2022-10-28T12:37:59.633Z,6.00
2022-10-28T12:40:32.568Z,3.57
2022-10-28T12:43:08.697Z,6.50
2022-10-28T12:45:41.354Z,3.90
2022-10-28T12:48:18.103Z,3.97
2022-10-28T12:50:50.743Z,3.37
2022-10-28T12:53:25.874Z,3.97
2022-10-28T12:55:59.276Z,4.03
2022-10-28T12:58:33.231Z,4.30
2022-10-28T13:01:08.349Z,4.03
2022-10-28T13:03:37.157Z,3.13
2022-10-28T13:06:27.272Z,6.27
2022-10-28T13:09:11.734Z,6.53
2022-10-28T13:11:58.902Z,5.00
2022-10-28T13:14:48.464Z,5.03
2022-10-28T13:17:29.071Z,3.57
2022-10-28T13:20:08.625Z,4.43
2022-10-28T13:23:12.424Z,4.23
2022-10-28T13:25:53.503Z,5.60
2022-10-28T13:28:23.997Z,5.20
2022-10-28T13:30:56.855Z,7.53
2022-10-28T13:33:27.908Z,4.40
2022-10-28T13:36:07.591Z,6.40
2022-10-28T13:38:36.655Z,5.43
2022-10-28T13:41:33.148Z,5.87
2022-10-28T13:44:29.537Z,5.23
2022-10-28T13:47:31.693Z,5.27
2022-10-28T13:50:34.298Z,4.63
2022-10-28T13:53:41.167Z,4.93
2022-10-28T13:56:42.689Z,6.07
2022-10-28T13:59:23.831Z,8.00
2022-10-28T14:02:08.003Z,3.57
2022-10-28T14:04:55.883Z,4.60
2022-10-28T14:07:27.974Z,4.90
2022-10-28T14:09:59.637Z,4.77
2022-10-28T14:12:33.602Z,4.10
2022-10-28T14:15:22.093Z,3.53
2022-10-28T14:17:58.155Z,5.47
2022-10-28T14:20:37.172Z,7.30
2022-10-28T14:23:47.900Z,4.53
2022-10-28T14:26:16.119Z,4.50
2022-10-28T14:28:58.591Z,5.43
2022-10-28T14:31:45.747Z,4.70
2022-10-28T14:34:36.520Z,4.23
2022-10-28T14:37:33.728Z,4.03
2022-10-28T14:40:14.930Z,4.73
2022-10-28T14:43:08.543Z,5.90
2022-10-28T14:45:49.141Z,6.80
2022-10-28T14:48:47.524Z,4.83
2022-10-28T14:51:21.909Z,5.60
2022-10-28T14:53:52.962Z,8.10
2022-10-28T14:56:25.055Z,7.33
2022-10-28T14:58:58.707Z,7.13
2022-10-28T15:01:36.140Z,6.27
2022-10-28T15:04:12.155Z,10.00
2022-10-28T15:06:43.163Z,7.90
2022-10-28T15:09:21.511Z,8.67
2022-10-28T15:11:52.889Z,10.67
2022-10-28T15:14:36.678Z,7.53
2022-10-28T15:17:15.063Z,6.07
2022-10-28T15:19:47.670Z,8.53
2022-10-28T15:22:19.590Z,5.93
2022-10-28T15:24:56.092Z,6.07
2022-10-28T15:27:25.627Z,7.70
2022-10-28T15:29:54.091Z,8.57
2022-10-28T15:32:36.385Z,6.90
2022-10-28T15:35:38.091Z,9.33
2022-10-28T15:38:48.732Z,6.27
2022-10-28T15:41:42.551Z,7.47
2022-10-28T15:44:31.487Z,8.30
2022-10-28T15:47:02.944Z,7.80
2022-10-28T15:49:38.913Z,6.30
2022-10-28T15:52:35.053Z,6.80
2022-10-28T15:55:04.976Z,8.57
2022-10-28T15:57:48.209Z,7.50
2022-10-28T16:00:24.005Z,8.47
2022-10-28T16:02:56.025Z,12.27
2022-10-28T16:05:49.431Z,10.20
2022-10-28T16:08:23.696Z,8.80
2022-10-28T16:10:55.782Z,6.67
2022-10-28T16:13:30.228Z,7.87
2022-10-28T16:16:04.831Z,9.40
2022-10-28T16:18:35.900Z,11.00
2022-10-28T16:21:06.471Z,11.30
2022-10-28T16:23:41.532Z,11.93
2022-10-28T16:26:12.820Z,12.30
2022-10-28T16:28:44.983Z,9.97
2022-10-28T16:31:17.457Z,13.80
2022-10-28T16:33:45.679Z,9.60
2022-10-28T16:36:15.099Z,9.87
2022-10-28T16:38:43.160Z,11.37
2022-10-28T16:41:16.655Z,12.67
2022-10-28T16:43:44.967Z,14.43
2022-10-28T16:46:14.392Z,11.87
2022-10-28T16:48:45.691Z,12.27
2022-10-28T16:51:17.584Z,17.33
2022-10-28T16:53:47.227Z,21.97
2022-10-28T16:56:16.372Z,17.13
2022-10-28T16:58:44.864Z,19.70
2022-10-28T17:01:15.135Z,16.07
2022-10-28T17:03:43.280Z,15.17
2022-10-28T17:06:11.465Z,17.17
2022-10-28T17:09:10.311Z,15.87
2022-10-28T17:11:28.840Z,14.43
2022-10-28T17:13:56.822Z,15.23
2022-10-28T17:16:25.328Z,14.17
2022-10-28T17:18:53.301Z,16.27
2022-10-28T17:21:21.266Z,15.03
2022-10-28T17:23:50.631Z,16.03
2022-10-28T17:26:18.715Z,17.00
2022-10-28T17:28:51.256Z,16.33
2022-10-28T17:31:23.869Z,14.63
2022-10-28T17:33:54.566Z,17.30
2022-10-28T17:36:23.603Z,16.63
2022-10-28T17:38:52.936Z,17.37
2022-10-28T17:41:21.016Z,16.57
2022-10-28T17:43:49.054Z,22.17
2022-10-28T17:46:17.022Z,19.57
2022-10-28T17:48:45.265Z,24.07
2022-10-28T17:51:13.455Z,22.80
2022-10-28T17:53:41.526Z,23.37
2022-10-28T17:56:11.388Z,22.43
2022-10-28T17:58:39.394Z,21.50
2022-10-28T18:01:09.475Z,25.27
2022-10-28T18:03:38.992Z,23.47
2022-10-28T18:06:09.127Z,19.10
2022-10-28T18:08:38.475Z,21.70
2022-10-28T18:11:08.566Z,20.13
2022-10-28T18:13:39.852Z,21.67
2022-10-28T18:16:09.718Z,21.37
2022-10-28T18:18:42.028Z,21.30
2022-10-28T18:21:11.428Z,20.03
2022-10-28T18:23:43.399Z,18.93
2022-10-28T18:26:15.479Z,23.13
2022-10-28T18:28:46.149Z,21.83
2022-10-28T18:31:15.522Z,24.83
2022-10-28T18:33:44.803Z,23.30
2022-10-28T18:36:14.201Z,25.83
2022-10-28T18:38:42.656Z,23.67
2022-10-28T18:41:12.419Z,23.87
2022-10-28T18:43:40.581Z,28.87
2022-10-28T18:46:09.988Z,23.63
2022-10-28T18:48:38.181Z,28.77
2022-10-28T18:51:09.500Z,23.90
2022-10-28T18:53:38.833Z,24.93
2022-10-28T18:56:08.376Z,28.10
2022-10-28T18:58:36.872Z,26.13
2022-10-28T19:01:10.867Z,25.77
2022-10-28T19:03:41.795Z,27.00
2022-10-28T19:06:13.552Z,28.93
2022-10-28T19:08:42.232Z,26.57
2022-10-28T19:11:13.341Z,30.33
2022-10-28T19:13:43.964Z,30.27
2022-10-28T19:18:46.334Z,29.43
2022-10-28T19:21:17.655Z,29.37
2022-10-28T19:23:45.652Z,32.40
2022-10-28T19:26:14.444Z,29.20
2022-10-28T19:28:44.019Z,30.77
2022-10-28T19:31:14.992Z,33.40
2022-10-28T19:33:45.182Z,30.73
2022-10-28T19:36:17.464Z,32.67
2022-10-28T19:38:46.593Z,31.57
2022-10-28T19:41:16.038Z,30.20
2022-10-28T19:43:47.817Z,32.93
2022-10-28T19:46:18.876Z,32.70
2022-10-28T19:48:49.133Z,29.30
2022-10-28T19:51:20.822Z,29.30
2022-10-28T19:53:49.539Z,30.47
2022-10-28T19:56:19.263Z,34.13
2022-10-28T19:58:49.527Z,32.30
2022-10-28T20:01:19.075Z,31.27
2022-10-28T20:03:49.352Z,33.33
2022-10-28T20:06:19.020Z,30.67
2022-10-28T20:08:48.266Z,34.70
2022-10-28T20:11:21.372Z,33.07
2022-10-28T20:13:53.836Z,30.70
2022-10-28T20:16:26.367Z,34.70
2022-10-28T20:18:55.183Z,33.10
2022-10-28T20:21:25.201Z,35.27
2022-10-28T20:23:55.548Z,35.10
2022-10-28T20:26:25.114Z,36.83
2022-10-28T20:28:53.512Z,35.80
2022-10-28T20:31:27.112Z,37.43
2022-10-28T20:33:57.732Z,37.87
2022-10-28T20:36:28.118Z,34.70
2022-10-28T20:38:56.539Z,34.67
2022-10-28T20:41:29.160Z,35.93
2022-10-28T20:43:57.785Z,35.37
2022-10-28T20:46:27.642Z,33.07
2022-10-28T20:48:56.705Z,32.80
2022-10-28T20:51:27.160Z,34.57
2022-10-28T20:53:55.505Z,34.60
2022-10-28T20:56:25.081Z,34.50
2022-10-28T20:58:53.932Z,33.93
2022-10-28T21:01:23.562Z,35.47
2022-10-28T21:03:57.399Z,34.50
2022-10-28T21:06:26.007Z,35.80
2022-10-28T21:08:54.652Z,31.93
2022-10-28T21:11:23.619Z,32.57
2022-10-28T21:13:53.419Z,31.53
2022-10-28T21:16:22.158Z,32.37
2022-10-28T21:18:51.043Z,33.03
2022-10-28T21:21:24.952Z,35.23
2022-10-28T21:23:53.072Z,33.27
2022-10-28T21:26:21.581Z,32.53
2022-10-28T21:28:51.743Z,32.03
2022-10-28T21:31:22.321Z,33.27
2022-10-28T21:36:24.946Z,33.67
2022-10-28T21:38:55.893Z,34.30
2022-10-28T21:41:25.011Z,33.23
2022-10-28T21:43:54.270Z,32.07
2022-10-28T21:46:26.215Z,33.03
2022-10-28T21:48:54.585Z,31.17
2022-10-28T21:51:24.097Z,31.37
2022-10-28T21:53:52.168Z,32.07
2022-10-28T21:56:21.315Z,34.97
2022-10-28T21:58:50.727Z,32.17
2022-10-28T22:01:21.595Z,33.10
2022-10-28T22:03:51.391Z,35.67
2022-10-28T22:06:19.443Z,32.93
2022-10-28T22:08:49.178Z,30.93
2022-10-28T22:11:19.857Z,34.27
2022-10-28T22:13:49.283Z,33.43
2022-10-28T22:16:18.721Z,31.93
2022-10-28T22:18:47.218Z,31.37
2022-10-28T22:21:17.820Z,32.97
2022-10-28T22:23:45.952Z,36.43
2022-10-28T22:26:17.016Z,34.57
2022-10-28T22:28:45.263Z,33.93
2022-10-28T22:31:14.992Z,34.13
2022-10-28T22:33:43.495Z,34.03
2022-10-28T22:36:13.408Z,32.73
2022-10-28T22:38:41.465Z,31.90
2022-10-28T22:41:13.188Z,32.83
2022-10-28T22:43:43.806Z,32.27
2022-10-28T22:46:13.238Z,32.37
2022-10-28T22:48:41.494Z,33.60
2022-10-28T22:51:10.550Z,34.77
2022-10-28T22:53:39.276Z,34.53
2022-10-28T22:56:08.623Z,33.77
2022-10-28T22:58:36.753Z,33.13
2022-10-28T23:01:10.938Z,32.33
2022-10-28T23:03:40.462Z,36.13
2022-10-28T23:06:09.912Z,36.53
2022-10-28T23:08:38.994Z,36.83
2022-10-28T23:11:07.616Z,38.07
2022-10-28T23:16:11.853Z,35.37
2022-10-28T23:18:40.581Z,35.67
2022-10-28T23:21:11.420Z,34.83
2022-10-28T23:23:39.742Z,36.90
2022-10-28T23:26:08.140Z,36.70
2022-10-28T23:28:36.128Z,37.20
2022-10-28T23:31:05.481Z,34.53
2022-10-28T23:33:36.020Z,35.90
2022-10-28T23:36:05.323Z,32.13
2022-10-28T23:38:33.620Z,33.03
2022-10-28T23:41:03.325Z,31.00
2022-10-28T23:43:32.407Z,33.80
2022-10-28T23:46:00.887Z,32.47
2022-10-28T23:48:30.030Z,34.20
2022-10-28T23:50:59.625Z,31.03
2022-10-28T23:55:57.521Z,31.33
2022-10-28T23:58:25.882Z,31.67
